sensor_id;sensor_type;location;lat;lon;timestamp;temperature;humidity
26336;DHT22;14047;50.936;4.654;2023-07-20T00:02:04;16.70;99.90
26336;DHT22;14047;50.936;4.654;2023-07-20T00:04:31;16.80;99.90
26336;DHT22;14047;50.936;4.654;2023-07-20T00:06:58;16.90;99.90
26336;DHT22;14047;50.936;4.654;2023-07-20T00:09:26;17.00;99.90
26336;DHT22;14047;50.936;4.654;2023-07-20T00:11:53;17.00;99.90
26336;DHT22;14047;50.936;4.654;2023-07-20T00:14:19;16.90;99.90
26336;DHT22;14047;50.936;4.654;2023-07-20T00:16:46;16.90;99.90
26336;DHT22;14047;50.936;4.654;2023-07-20T00:19:12;16.90;99.90
26336;DHT22;14047;50.936;4.654;2023-07-20T00:21:38;17.00;99.90
26336;DHT22;14047;50.936;4.654;2023-07-20T00:24:08;17.10;99.90
26336;DHT22;14047;50.936;4.654;2023-07-20T00:26:34;17.10;99.90
26336;DHT22;14047;50.936;4.654;2023-07-20T00:29:00;17.10;99.90
26336;DHT22;14047;50.936;4.654;2023-07-20T00:31:26;17.20;99.90
26336;DHT22;14047;50.936;4.654;2023-07-20T00:33:53;17.30;99.90
26336;DHT22;14047;50.936;4.654;2023-07-20T00:36:19;17.30;99.90
26336;DHT22;14047;50.936;4.654;2023-07-20T00:38:45;17.40;99.90
26336;DHT22;14047;50.936;4.654;2023-07-20T00:41:11;17.40;99.90
26336;DHT22;14047;50.936;4.654;2023-07-20T00:43:39;17.40;99.90
26336;DHT22;14047;50.936;4.654;2023-07-20T00:46:05;17.40;99.90
26336;DHT22;14047;50.936;4.654;2023-07-20T00:48:32;17.40;99.90
26336;DHT22;14047;50.936;4.654;2023-07-20T00:50:59;17.40;99.90
26336;DHT22;14047;50.936;4.654;2023-07-20T00:53:26;17.40;99.90
26336;DHT22;14047;50.936;4.654;2023-07-20T00:55:53;17.40;99.90
26336;DHT22;14047;50.936;4.654;2023-07-20T00:58:19;17.30;99.90
26336;DHT22;14047;50.936;4.654;2023-07-20T01:00:46;17.30;99.90
26336;DHT22;14047;50.936;4.654;2023-07-20T01:03:13;17.30;99.90
26336;DHT22;14047;50.936;4.654;2023-07-20T01:05:52;17.20;99.90
26336;DHT22;14047;50.936;4.654;2023-07-20T01:08:33;17.20;99.90
26336;DHT22;14047;50.936;4.654;2023-07-20T01:11:11;17.30;99.90
26336;DHT22;14047;50.936;4.654;2023-07-20T01:13:39;17.20;99.90
26336;DHT22;14047;50.936;4.654;2023-07-20T01:16:08;17.30;99.90
26336;DHT22;14047;50.936;4.654;2023-07-20T01:18:34;17.30;99.90
26336;DHT22;14047;50.936;4.654;2023-07-20T01:21:08;17.40;99.90
26336;DHT22;14047;50.936;4.654;2023-07-20T01:23:40;17.40;99.90
26336;DHT22;14047;50.936;4.654;2023-07-20T01:26:27;17.40;99.90
26336;DHT22;14047;50.936;4.654;2023-07-20T01:29:16;17.50;99.90
26336;DHT22;14047;50.936;4.654;2023-07-20T01:31:44;17.40;99.90
26336;DHT22;14047;50.936;4.654;2023-07-20T01:34:12;17.50;99.90
26336;DHT22;14047;50.936;4.654;2023-07-20T01:36:42;17.50;99.90
26336;DHT22;14047;50.936;4.654;2023-07-20T01:39:09;17.40;99.90
26336;DHT22;14047;50.936;4.654;2023-07-20T01:41:35;17.30;99.90
26336;DHT22;14047;50.936;4.654;2023-07-20T01:44:03;17.30;99.90
26336;DHT22;14047;50.936;4.654;2023-07-20T01:46:29;17.30;99.90
26336;DHT22;14047;50.936;4.654;2023-07-20T01:48:55;17.30;99.90
26336;DHT22;14047;50.936;4.654;2023-07-20T01:51:21;17.30;99.90
26336;DHT22;14047;50.936;4.654;2023-07-20T01:53:48;17.20;99.90
26336;DHT22;14047;50.936;4.654;2023-07-20T01:56:14;17.10;99.90
26336;DHT22;14047;50.936;4.654;2023-07-20T01:58:40;17.10;99.90
26336;DHT22;14047;50.936;4.654;2023-07-20T02:01:08;17.00;99.90
26336;DHT22;14047;50.936;4.654;2023-07-20T02:03:34;17.00;99.90
26336;DHT22;14047;50.936;4.654;2023-07-20T02:06:00;17.00;99.90
26336;DHT22;14047;50.936;4.654;2023-07-20T02:08:26;17.00;99.90
26336;DHT22;14047;50.936;4.654;2023-07-20T02:10:55;16.90;99.90
26336;DHT22;14047;50.936;4.654;2023-07-20T02:13:21;16.90;99.90
26336;DHT22;14047;50.936;4.654;2023-07-20T02:15:47;16.90;99.90
26336;DHT22;14047;50.936;4.654;2023-07-20T02:18:15;16.80;99.90
26336;DHT22;14047;50.936;4.654;2023-07-20T02:20:41;16.80;99.90
26336;DHT22;14047;50.936;4.654;2023-07-20T02:23:08;16.70;99.90
26336;DHT22;14047;50.936;4.654;2023-07-20T02:25:34;16.70;99.90
26336;DHT22;14047;50.936;4.654;2023-07-20T02:28:00;16.70;99.90
26336;DHT22;14047;50.936;4.654;2023-07-20T02:30:26;16.70;99.90
26336;DHT22;14047;50.936;4.654;2023-07-20T02:32:53;16.70;99.90
26336;DHT22;14047;50.936;4.654;2023-07-20T02:35:20;16.60;99.90
26336;DHT22;14047;50.936;4.654;2023-07-20T02:37:46;16.60;99.90
26336;DHT22;14047;50.936;4.654;2023-07-20T02:40:12;16.60;99.90
26336;DHT22;14047;50.936;4.654;2023-07-20T02:42:38;16.60;99.90
26336;DHT22;14047;50.936;4.654;2023-07-20T02:45:05;16.60;99.90
26336;DHT22;14047;50.936;4.654;2023-07-20T02:47:32;16.60;99.90
26336;DHT22;14047;50.936;4.654;2023-07-20T02:49:59;16.60;99.90
26336;DHT22;14047;50.936;4.654;2023-07-20T02:52:26;16.60;99.90
26336;DHT22;14047;50.936;4.654;2023-07-20T02:54:55;16.50;99.90
26336;DHT22;14047;50.936;4.654;2023-07-20T02:57:21;16.50;99.90
26336;DHT22;14047;50.936;4.654;2023-07-20T02:59:49;16.60;99.90
26336;DHT22;14047;50.936;4.654;2023-07-20T03:02:15;16.60;99.90
26336;DHT22;14047;50.936;4.654;2023-07-20T03:04:41;16.50;99.90
26336;DHT22;14047;50.936;4.654;2023-07-20T03:07:07;16.40;99.90
26336;DHT22;14047;50.936;4.654;2023-07-20T03:09:33;16.40;99.90
26336;DHT22;14047;50.936;4.654;2023-07-20T03:12:00;16.40;99.90
26336;DHT22;14047;50.936;4.654;2023-07-20T03:14:27;16.40;99.90
26336;DHT22;14047;50.936;4.654;2023-07-20T03:16:54;16.50;99.90
26336;DHT22;14047;50.936;4.654;2023-07-20T03:19:21;16.50;99.90
26336;DHT22;14047;50.936;4.654;2023-07-20T03:21:48;16.40;99.90
26336;DHT22;14047;50.936;4.654;2023-07-20T03:24:16;16.40;99.90
26336;DHT22;14047;50.936;4.654;2023-07-20T03:26:42;16.40;99.90
26336;DHT22;14047;50.936;4.654;2023-07-20T03:29:08;16.40;99.90
26336;DHT22;14047;50.936;4.654;2023-07-20T03:31:35;16.50;99.90
26336;DHT22;14047;50.936;4.654;2023-07-20T03:34:01;16.50;99.90
26336;DHT22;14047;50.936;4.654;2023-07-20T03:36:27;16.60;99.90
26336;DHT22;14047;50.936;4.654;2023-07-20T03:38:53;16.60;99.90
26336;DHT22;14047;50.936;4.654;2023-07-20T03:41:20;16.70;99.90
26336;DHT22;14047;50.936;4.654;2023-07-20T03:43:48;16.70;99.90
26336;DHT22;14047;50.936;4.654;2023-07-20T03:46:14;16.70;99.90
26336;DHT22;14047;50.936;4.654;2023-07-20T03:48:42;16.70;99.90
26336;DHT22;14047;50.936;4.654;2023-07-20T03:51:08;16.80;99.90
26336;DHT22;14047;50.936;4.654;2023-07-20T03:53:34;16.70;99.90
26336;DHT22;14047;50.936;4.654;2023-07-20T03:56:03;16.70;99.90
26336;DHT22;14047;50.936;4.654;2023-07-20T03:58:29;16.70;99.90
26336;DHT22;14047;50.936;4.654;2023-07-20T04:00:58;16.70;99.90
26336;DHT22;14047;50.936;4.654;2023-07-20T04:03:25;16.70;99.90
26336;DHT22;14047;50.936;4.654;2023-07-20T04:05:54;16.70;99.90
26336;DHT22;14047;50.936;4.654;2023-07-20T04:08:23;16.80;99.90
26336;DHT22;14047;50.936;4.654;2023-07-20T04:10:50;16.90;99.90
26336;DHT22;14047;50.936;4.654;2023-07-20T04:13:16;16.90;99.90
26336;DHT22;14047;50.936;4.654;2023-07-20T04:15:43;16.90;99.90
26336;DHT22;14047;50.936;4.654;2023-07-20T04:18:10;17.00;99.90
26336;DHT22;14047;50.936;4.654;2023-07-20T04:20:36;17.00;99.90
26336;DHT22;14047;50.936;4.654;2023-07-20T04:23:04;17.10;99.90
26336;DHT22;14047;50.936;4.654;2023-07-20T04:25:30;17.10;99.90
26336;DHT22;14047;50.936;4.654;2023-07-20T04:28:07;17.20;99.90
26336;DHT22;14047;50.936;4.654;2023-07-20T04:30:38;17.30;99.90
26336;DHT22;14047;50.936;4.654;2023-07-20T04:33:06;17.40;99.90
26336;DHT22;14047;50.936;4.654;2023-07-20T04:35:49;17.50;99.90
26336;DHT22;14047;50.936;4.654;2023-07-20T04:38:18;17.60;99.90
26336;DHT22;14047;50.936;4.654;2023-07-20T04:40:47;17.60;99.90
26336;DHT22;14047;50.936;4.654;2023-07-20T04:43:14;17.70;99.90
26336;DHT22;14047;50.936;4.654;2023-07-20T04:45:40;17.70;99.90
26336;DHT22;14047;50.936;4.654;2023-07-20T04:48:09;17.80;99.90
26336;DHT22;14047;50.936;4.654;2023-07-20T04:50:39;17.90;99.90
26336;DHT22;14047;50.936;4.654;2023-07-20T04:53:06;17.90;99.90
26336;DHT22;14047;50.936;4.654;2023-07-20T04:55:32;17.90;99.90
26336;DHT22;14047;50.936;4.654;2023-07-20T04:58:03;18.00;99.90
26336;DHT22;14047;50.936;4.654;2023-07-20T05:00:32;18.00;99.90
26336;DHT22;14047;50.936;4.654;2023-07-20T05:02:58;18.00;99.90
26336;DHT22;14047;50.936;4.654;2023-07-20T05:05:26;18.00;99.90
26336;DHT22;14047;50.936;4.654;2023-07-20T05:07:54;18.10;99.90
26336;DHT22;14047;50.936;4.654;2023-07-20T05:10:20;18.10;99.90
26336;DHT22;14047;50.936;4.654;2023-07-20T05:12:46;18.20;99.90
26336;DHT22;14047;50.936;4.654;2023-07-20T05:15:12;18.20;99.90
26336;DHT22;14047;50.936;4.654;2023-07-20T05:17:39;18.20;99.90
26336;DHT22;14047;50.936;4.654;2023-07-20T05:20:06;18.30;99.90
26336;DHT22;14047;50.936;4.654;2023-07-20T05:22:32;18.30;99.90
26336;DHT22;14047;50.936;4.654;2023-07-20T05:24:59;18.30;99.90
26336;DHT22;14047;50.936;4.654;2023-07-20T05:27:24;18.30;99.90
26336;DHT22;14047;50.936;4.654;2023-07-20T05:29:50;18.30;99.90
26336;DHT22;14047;50.936;4.654;2023-07-20T05:32:17;18.30;99.90
26336;DHT22;14047;50.936;4.654;2023-07-20T05:34:43;18.40;99.90
26336;DHT22;14047;50.936;4.654;2023-07-20T05:37:09;18.40;99.90
26336;DHT22;14047;50.936;4.654;2023-07-20T05:39:35;18.50;99.90
26336;DHT22;14047;50.936;4.654;2023-07-20T05:42:01;18.70;99.90
26336;DHT22;14047;50.936;4.654;2023-07-20T05:44:26;18.60;99.90
26336;DHT22;14047;50.936;4.654;2023-07-20T05:46:52;18.70;99.90
26336;DHT22;14047;50.936;4.654;2023-07-20T05:49:18;18.70;99.90
26336;DHT22;14047;50.936;4.654;2023-07-20T05:51:44;18.70;99.90
26336;DHT22;14047;50.936;4.654;2023-07-20T05:54:12;18.80;99.90
26336;DHT22;14047;50.936;4.654;2023-07-20T05:56:38;18.80;99.90
26336;DHT22;14047;50.936;4.654;2023-07-20T05:59:04;18.90;99.90
26336;DHT22;14047;50.936;4.654;2023-07-20T06:01:29;19.00;99.90
26336;DHT22;14047;50.936;4.654;2023-07-20T06:03:55;19.10;99.90
26336;DHT22;14047;50.936;4.654;2023-07-20T06:06:21;19.10;99.90
26336;DHT22;14047;50.936;4.654;2023-07-20T06:08:47;19.10;99.90
26336;DHT22;14047;50.936;4.654;2023-07-20T06:11:13;19.20;99.90
26336;DHT22;14047;50.936;4.654;2023-07-20T06:13:39;19.40;99.90
26336;DHT22;14047;50.936;4.654;2023-07-20T06:16:05;19.60;99.90
26336;DHT22;14047;50.936;4.654;2023-07-20T06:18:31;19.70;99.90
26336;DHT22;14047;50.936;4.654;2023-07-20T06:20:57;19.80;99.90
26336;DHT22;14047;50.936;4.654;2023-07-20T06:23:23;19.80;99.90
26336;DHT22;14047;50.936;4.654;2023-07-20T06:25:48;19.90;99.90
26336;DHT22;14047;50.936;4.654;2023-07-20T06:28:14;20.00;99.90
26336;DHT22;14047;50.936;4.654;2023-07-20T06:30:41;20.00;99.90
26336;DHT22;14047;50.936;4.654;2023-07-20T06:33:07;20.10;99.90
26336;DHT22;14047;50.936;4.654;2023-07-20T06:35:34;20.20;99.90
26336;DHT22;14047;50.936;4.654;2023-07-20T06:38:01;20.30;99.90
26336;DHT22;14047;50.936;4.654;2023-07-20T06:40:27;20.40;99.90
26336;DHT22;14047;50.936;4.654;2023-07-20T06:42:53;20.40;99.90
26336;DHT22;14047;50.936;4.654;2023-07-20T06:45:18;20.40;99.90
26336;DHT22;14047;50.936;4.654;2023-07-20T06:47:44;20.30;99.90
26336;DHT22;14047;50.936;4.654;2023-07-20T06:50:10;20.40;99.90
26336;DHT22;14047;50.936;4.654;2023-07-20T06:52:36;20.60;99.90
26336;DHT22;14047;50.936;4.654;2023-07-20T06:55:03;20.80;99.90
26336;DHT22;14047;50.936;4.654;2023-07-20T06:57:29;20.90;99.90
26336;DHT22;14047;50.936;4.654;2023-07-20T06:59:55;21.10;99.90
26336;DHT22;14047;50.936;4.654;2023-07-20T07:02:21;21.20;99.90
26336;DHT22;14047;50.936;4.654;2023-07-20T07:04:47;21.10;99.90
26336;DHT22;14047;50.936;4.654;2023-07-20T07:07:16;20.50;99.90
26336;DHT22;14047;50.936;4.654;2023-07-20T07:09:42;20.60;99.90
26336;DHT22;14047;50.936;4.654;2023-07-20T07:12:08;20.70;99.90
26336;DHT22;14047;50.936;4.654;2023-07-20T07:14:34;20.90;99.90
26336;DHT22;14047;50.936;4.654;2023-07-20T07:17:01;21.00;99.90
26336;DHT22;14047;50.936;4.654;2023-07-20T07:19:27;21.20;99.90
26336;DHT22;14047;50.936;4.654;2023-07-20T07:21:53;21.40;99.90
26336;DHT22;14047;50.936;4.654;2023-07-20T07:24:19;21.70;99.90
26336;DHT22;14047;50.936;4.654;2023-07-20T07:26:44;22.00;99.90
26336;DHT22;14047;50.936;4.654;2023-07-20T07:29:10;22.30;99.90
26336;DHT22;14047;50.936;4.654;2023-07-20T07:31:36;22.50;99.90
26336;DHT22;14047;50.936;4.654;2023-07-20T07:34:04;22.50;99.90
26336;DHT22;14047;50.936;4.654;2023-07-20T07:36:31;22.70;99.90
26336;DHT22;14047;50.936;4.654;2023-07-20T07:38:57;22.70;99.90
26336;DHT22;14047;50.936;4.654;2023-07-20T07:41:23;22.70;99.90
26336;DHT22;14047;50.936;4.654;2023-07-20T07:43:49;22.80;99.90
26336;DHT22;14047;50.936;4.654;2023-07-20T07:46:15;22.80;99.90
26336;DHT22;14047;50.936;4.654;2023-07-20T07:48:42;22.90;99.90
26336;DHT22;14047;50.936;4.654;2023-07-20T07:51:08;23.00;99.90
26336;DHT22;14047;50.936;4.654;2023-07-20T07:53:34;23.10;99.90
26336;DHT22;14047;50.936;4.654;2023-07-20T07:56:02;23.20;99.90
26336;DHT22;14047;50.936;4.654;2023-07-20T07:58:29;22.80;99.90
26336;DHT22;14047;50.936;4.654;2023-07-20T08:00:55;22.50;99.90
26336;DHT22;14047;50.936;4.654;2023-07-20T08:03:21;22.70;99.90
26336;DHT22;14047;50.936;4.654;2023-07-20T08:05:49;22.80;99.90
26336;DHT22;14047;50.936;4.654;2023-07-20T08:08:15;23.00;99.90
26336;DHT22;14047;50.936;4.654;2023-07-20T08:10:41;22.60;99.90
26336;DHT22;14047;50.936;4.654;2023-07-20T08:13:07;22.40;99.90
26336;DHT22;14047;50.936;4.654;2023-07-20T08:15:33;22.40;99.90
26336;DHT22;14047;50.936;4.654;2023-07-20T08:17:59;22.60;99.90
26336;DHT22;14047;50.936;4.654;2023-07-20T08:20:24;22.70;99.90
26336;DHT22;14047;50.936;4.654;2023-07-20T08:22:54;22.90;99.90
26336;DHT22;14047;50.936;4.654;2023-07-20T08:25:20;22.70;99.90
26336;DHT22;14047;50.936;4.654;2023-07-20T08:27:46;22.50;99.90
26336;DHT22;14047;50.936;4.654;2023-07-20T08:30:13;22.60;99.90
26336;DHT22;14047;50.936;4.654;2023-07-20T08:32:39;22.70;99.90
26336;DHT22;14047;50.936;4.654;2023-07-20T08:35:06;22.90;99.90
26336;DHT22;14047;50.936;4.654;2023-07-20T08:37:32;23.00;99.90
26336;DHT22;14047;50.936;4.654;2023-07-20T08:39:58;23.00;99.90
26336;DHT22;14047;50.936;4.654;2023-07-20T08:42:24;22.90;99.90
26336;DHT22;14047;50.936;4.654;2023-07-20T08:44:52;23.00;99.90
26336;DHT22;14047;50.936;4.654;2023-07-20T08:47:20;23.10;99.90
26336;DHT22;14047;50.936;4.654;2023-07-20T08:49:48;23.30;99.90
26336;DHT22;14047;50.936;4.654;2023-07-20T08:52:14;23.30;99.90
26336;DHT22;14047;50.936;4.654;2023-07-20T08:54:40;23.30;99.90
26336;DHT22;14047;50.936;4.654;2023-07-20T08:57:06;23.40;99.90
26336;DHT22;14047;50.936;4.654;2023-07-20T08:59:36;23.50;99.90
26336;DHT22;14047;50.936;4.654;2023-07-20T09:02:02;23.60;99.90
26336;DHT22;14047;50.936;4.654;2023-07-20T09:04:29;23.60;99.90
26336;DHT22;14047;50.936;4.654;2023-07-20T09:06:57;23.50;99.90
26336;DHT22;14047;50.936;4.654;2023-07-20T09:09:22;23.60;99.90
26336;DHT22;14047;50.936;4.654;2023-07-20T09:11:49;23.70;99.90
26336;DHT22;14047;50.936;4.654;2023-07-20T09:14:16;23.70;99.90
26336;DHT22;14047;50.936;4.654;2023-07-20T09:16:50;23.50;99.90
26336;DHT22;14047;50.936;4.654;2023-07-20T09:19:16;23.60;99.90
26336;DHT22;14047;50.936;4.654;2023-07-20T09:21:50;23.00;99.90
26336;DHT22;14047;50.936;4.654;2023-07-20T09:24:20;22.00;99.90
26336;DHT22;14047;50.936;4.654;2023-07-20T09:26:48;21.70;99.90
26336;DHT22;14047;50.936;4.654;2023-07-20T09:29:14;21.70;99.90
26336;DHT22;14047;50.936;4.654;2023-07-20T09:32:01;22.10;99.90
26336;DHT22;14047;50.936;4.654;2023-07-20T09:34:31;22.50;99.90
26336;DHT22;14047;50.936;4.654;2023-07-20T09:37:01;22.70;99.90
26336;DHT22;14047;50.936;4.654;2023-07-20T09:39:29;23.00;99.90
26336;DHT22;14047;50.936;4.654;2023-07-20T09:42:00;23.10;99.90
26336;DHT22;14047;50.936;4.654;2023-07-20T09:44:28;23.20;99.90
26336;DHT22;14047;50.936;4.654;2023-07-20T09:46:54;23.20;99.90
26336;DHT22;14047;50.936;4.654;2023-07-20T09:49:20;23.40;99.90
26336;DHT22;14047;50.936;4.654;2023-07-20T09:51:46;23.30;99.90
26336;DHT22;14047;50.936;4.654;2023-07-20T09:54:13;23.30;99.90
26336;DHT22;14047;50.936;4.654;2023-07-20T09:56:41;23.40;99.90
26336;DHT22;14047;50.936;4.654;2023-07-20T09:59:07;23.80;99.90
26336;DHT22;14047;50.936;4.654;2023-07-20T10:01:34;24.20;99.90
26336;DHT22;14047;50.936;4.654;2023-07-20T10:04:03;24.50;99.90
26336;DHT22;14047;50.936;4.654;2023-07-20T10:06:32;24.50;99.90
26336;DHT22;14047;50.936;4.654;2023-07-20T10:09:01;24.40;99.90
26336;DHT22;14047;50.936;4.654;2023-07-20T10:11:35;24.30;99.90
26336;DHT22;14047;50.936;4.654;2023-07-20T10:14:03;24.40;99.90
26336;DHT22;14047;50.936;4.654;2023-07-20T10:16:40;24.50;99.90
26336;DHT22;14047;50.936;4.654;2023-07-20T10:19:25;24.40;99.90
26336;DHT22;14047;50.936;4.654;2023-07-20T10:22:00;24.30;99.90
26336;DHT22;14047;50.936;4.654;2023-07-20T10:24:29;24.50;99.90
26336;DHT22;14047;50.936;4.654;2023-07-20T10:26:57;24.60;99.90
26336;DHT22;14047;50.936;4.654;2023-07-20T10:29:23;24.80;99.90
26336;DHT22;14047;50.936;4.654;2023-07-20T10:31:51;24.70;99.90
26336;DHT22;14047;50.936;4.654;2023-07-20T10:34:17;24.40;99.90
26336;DHT22;14047;50.936;4.654;2023-07-20T10:36:44;24.50;99.90
26336;DHT22;14047;50.936;4.654;2023-07-20T10:39:28;24.60;99.90
26336;DHT22;14047;50.936;4.654;2023-07-20T10:42:06;24.80;99.90
26336;DHT22;14047;50.936;4.654;2023-07-20T10:44:33;24.70;99.90
26336;DHT22;14047;50.936;4.654;2023-07-20T10:47:01;24.80;99.90
26336;DHT22;14047;50.936;4.654;2023-07-20T10:49:27;24.50;99.90
26336;DHT22;14047;50.936;4.654;2023-07-20T10:51:58;24.70;99.90
26336;DHT22;14047;50.936;4.654;2023-07-20T10:56:56;25.00;99.90
26336;DHT22;14047;50.936;4.654;2023-07-20T11:01:57;24.90;99.90
26336;DHT22;14047;50.936;4.654;2023-07-20T11:04:42;25.30;99.90
26336;DHT22;14047;50.936;4.654;2023-07-20T11:07:09;25.60;99.90
26336;DHT22;14047;50.936;4.654;2023-07-20T11:09:36;25.90;99.90
26336;DHT22;14047;50.936;4.654;2023-07-20T11:12:16;26.20;99.90
26336;DHT22;14047;50.936;4.654;2023-07-20T11:14:56;26.50;99.90
26336;DHT22;14047;50.936;4.654;2023-07-20T11:17:32;26.80;99.90
26336;DHT22;14047;50.936;4.654;2023-07-20T11:20:00;27.10;99.90
26336;DHT22;14047;50.936;4.654;2023-07-20T11:22:27;27.50;99.90
26336;DHT22;14047;50.936;4.654;2023-07-20T11:24:57;27.50;99.90
26336;DHT22;14047;50.936;4.654;2023-07-20T11:27:23;27.30;99.90
26336;DHT22;14047;50.936;4.654;2023-07-20T11:29:49;26.90;99.90
26336;DHT22;14047;50.936;4.654;2023-07-20T11:32:24;26.40;99.90
26336;DHT22;14047;50.936;4.654;2023-07-20T11:34:51;26.30;99.90
26336;DHT22;14047;50.936;4.654;2023-07-20T11:37:17;26.30;99.90
26336;DHT22;14047;50.936;4.654;2023-07-20T11:39:44;26.20;99.90
26336;DHT22;14047;50.936;4.654;2023-07-20T11:42:11;26.10;99.90
26336;DHT22;14047;50.936;4.654;2023-07-20T11:44:38;26.00;99.90
26336;DHT22;14047;50.936;4.654;2023-07-20T11:47:08;26.10;99.90
26336;DHT22;14047;50.936;4.654;2023-07-20T11:49:36;26.10;99.90
26336;DHT22;14047;50.936;4.654;2023-07-20T11:52:07;26.10;99.90
26336;DHT22;14047;50.936;4.654;2023-07-20T11:54:43;26.20;99.90
26336;DHT22;14047;50.936;4.654;2023-07-20T11:57:19;26.30;99.90
26336;DHT22;14047;50.936;4.654;2023-07-20T12:00:02;26.50;99.90
26336;DHT22;14047;50.936;4.654;2023-07-20T12:02:34;26.70;99.90
26336;DHT22;14047;50.936;4.654;2023-07-20T12:05:02;26.30;99.90
26336;DHT22;14047;50.936;4.654;2023-07-20T12:07:29;25.90;99.90
26336;DHT22;14047;50.936;4.654;2023-07-20T12:10:05;25.50;99.90
26336;DHT22;14047;50.936;4.654;2023-07-20T12:12:38;25.30;99.90
26336;DHT22;14047;50.936;4.654;2023-07-20T12:15:17;25.40;99.90
26336;DHT22;14047;50.936;4.654;2023-07-20T12:17:46;25.50;99.90
26336;DHT22;14047;50.936;4.654;2023-07-20T12:20:12;25.40;99.90
26336;DHT22;14047;50.936;4.654;2023-07-20T12:22:39;25.50;99.90
26336;DHT22;14047;50.936;4.654;2023-07-20T12:25:07;25.60;99.90
26336;DHT22;14047;50.936;4.654;2023-07-20T12:27:36;25.80;99.90
26336;DHT22;14047;50.936;4.654;2023-07-20T12:30:04;26.30;99.90
26336;DHT22;14047;50.936;4.654;2023-07-20T12:32:30;26.40;99.90
26336;DHT22;14047;50.936;4.654;2023-07-20T12:34:56;26.60;99.90
26336;DHT22;14047;50.936;4.654;2023-07-20T12:37:22;26.90;99.90
26336;DHT22;14047;50.936;4.654;2023-07-20T12:39:48;27.00;99.90
26336;DHT22;14047;50.936;4.654;2023-07-20T12:42:14;27.10;99.90
26336;DHT22;14047;50.936;4.654;2023-07-20T12:44:40;27.30;99.90
26336;DHT22;14047;50.936;4.654;2023-07-20T12:47:07;27.50;99.90
26336;DHT22;14047;50.936;4.654;2023-07-20T12:49:33;27.70;99.90
26336;DHT22;14047;50.936;4.654;2023-07-20T12:51:59;28.00;99.90
26336;DHT22;14047;50.936;4.654;2023-07-20T12:54:25;28.30;99.90
26336;DHT22;14047;50.936;4.654;2023-07-20T12:56:51;28.50;99.90
26336;DHT22;14047;50.936;4.654;2023-07-20T12:59:17;28.90;99.90
26336;DHT22;14047;50.936;4.654;2023-07-20T13:01:42;29.20;99.90
26336;DHT22;14047;50.936;4.654;2023-07-20T13:04:09;29.70;99.90
26336;DHT22;14047;50.936;4.654;2023-07-20T13:06:36;30.10;99.90
26336;DHT22;14047;50.936;4.654;2023-07-20T13:09:02;30.20;99.90
26336;DHT22;14047;50.936;4.654;2023-07-20T13:11:28;30.20;99.90
26336;DHT22;14047;50.936;4.654;2023-07-20T13:13:54;30.30;99.90
26336;DHT22;14047;50.936;4.654;2023-07-20T13:16:20;30.20;99.90
26336;DHT22;14047;50.936;4.654;2023-07-20T13:18:46;29.90;99.90
26336;DHT22;14047;50.936;4.654;2023-07-20T13:21:12;29.70;99.90
26336;DHT22;14047;50.936;4.654;2023-07-20T13:23:38;29.00;99.90
26336;DHT22;14047;50.936;4.654;2023-07-20T13:26:05;28.20;99.90
26336;DHT22;14047;50.936;4.654;2023-07-20T13:28:31;28.10;99.90
26336;DHT22;14047;50.936;4.654;2023-07-20T13:30:57;27.70;99.90
26336;DHT22;14047;50.936;4.654;2023-07-20T13:33:22;27.50;99.90
26336;DHT22;14047;50.936;4.654;2023-07-20T13:36:08;27.40;99.90
26336;DHT22;14047;50.936;4.654;2023-07-20T13:38:50;27.60;99.90
26336;DHT22;14047;50.936;4.654;2023-07-20T13:41:17;27.80;99.90
26336;DHT22;14047;50.936;4.654;2023-07-20T13:43:43;27.70;99.90
26336;DHT22;14047;50.936;4.654;2023-07-20T13:46:08;27.70;99.90
26336;DHT22;14047;50.936;4.654;2023-07-20T13:48:34;27.60;99.90
26336;DHT22;14047;50.936;4.654;2023-07-20T13:51:00;27.70;99.90
26336;DHT22;14047;50.936;4.654;2023-07-20T13:53:26;27.60;99.90
26336;DHT22;14047;50.936;4.654;2023-07-20T13:55:53;27.10;99.90
26336;DHT22;14047;50.936;4.654;2023-07-20T13:58:20;26.70;99.90
26336;DHT22;14047;50.936;4.654;2023-07-20T14:00:45;25.30;99.90
26336;DHT22;14047;50.936;4.654;2023-07-20T14:03:11;25.00;99.90
26336;DHT22;14047;50.936;4.654;2023-07-20T14:05:37;24.80;99.90
26336;DHT22;14047;50.936;4.654;2023-07-20T14:08:03;24.10;99.90
26336;DHT22;14047;50.936;4.654;2023-07-20T14:10:29;24.00;99.90
26336;DHT22;14047;50.936;4.654;2023-07-20T14:12:55;23.40;99.90
26336;DHT22;14047;50.936;4.654;2023-07-20T14:15:21;22.90;99.90
26336;DHT22;14047;50.936;4.654;2023-07-20T14:17:47;23.10;99.90
26336;DHT22;14047;50.936;4.654;2023-07-20T14:20:13;23.00;99.90
26336;DHT22;14047;50.936;4.654;2023-07-20T14:22:39;23.00;99.90
26336;DHT22;14047;50.936;4.654;2023-07-20T14:25:05;23.20;99.90
26336;DHT22;14047;50.936;4.654;2023-07-20T14:27:31;23.50;99.90
26336;DHT22;14047;50.936;4.654;2023-07-20T14:29:57;23.10;99.90
26336;DHT22;14047;50.936;4.654;2023-07-20T14:32:23;23.10;99.90
26336;DHT22;14047;50.936;4.654;2023-07-20T14:34:49;23.20;99.90
26336;DHT22;14047;50.936;4.654;2023-07-20T14:37:15;23.20;99.90
26336;DHT22;14047;50.936;4.654;2023-07-20T14:39:41;23.00;99.90
26336;DHT22;14047;50.936;4.654;2023-07-20T14:42:07;22.80;99.90
26336;DHT22;14047;50.936;4.654;2023-07-20T14:44:33;23.00;99.90
26336;DHT22;14047;50.936;4.654;2023-07-20T14:46:59;22.90;99.90
26336;DHT22;14047;50.936;4.654;2023-07-20T14:49:28;23.20;99.90
26336;DHT22;14047;50.936;4.654;2023-07-20T14:51:54;23.10;99.90
26336;DHT22;14047;50.936;4.654;2023-07-20T14:54:21;23.10;99.90
26336;DHT22;14047;50.936;4.654;2023-07-20T14:56:51;23.50;99.90
26336;DHT22;14047;50.936;4.654;2023-07-20T14:59:20;23.80;99.90
26336;DHT22;14047;50.936;4.654;2023-07-20T15:01:46;24.10;99.90
26336;DHT22;14047;50.936;4.654;2023-07-20T15:04:12;24.70;99.90
26336;DHT22;14047;50.936;4.654;2023-07-20T15:06:39;25.60;99.90
26336;DHT22;14047;50.936;4.654;2023-07-20T15:09:05;26.50;99.90
26336;DHT22;14047;50.936;4.654;2023-07-20T15:11:31;26.90;99.90
26336;DHT22;14047;50.936;4.654;2023-07-20T15:13:57;27.10;99.90
26336;DHT22;14047;50.936;4.654;2023-07-20T15:16:26;27.50;99.90
26336;DHT22;14047;50.936;4.654;2023-07-20T15:18:52;26.60;99.90
26336;DHT22;14047;50.936;4.654;2023-07-20T15:21:18;26.80;99.90
26336;DHT22;14047;50.936;4.654;2023-07-20T15:23:44;26.20;99.90
26336;DHT22;14047;50.936;4.654;2023-07-20T15:26:10;25.60;99.90
26336;DHT22;14047;50.936;4.654;2023-07-20T15:28:37;25.10;99.90
26336;DHT22;14047;50.936;4.654;2023-07-20T15:31:04;24.80;99.90
26336;DHT22;14047;50.936;4.654;2023-07-20T15:33:30;24.90;99.90
26336;DHT22;14047;50.936;4.654;2023-07-20T15:35:57;24.60;99.90
26336;DHT22;14047;50.936;4.654;2023-07-20T15:38:23;24.50;99.90